Tuesday, July 17, 2018, 1:36 AM EDT
Back to Local

KCBE, Cumberland, Greater Cumberland Regional Airport

Location: Wiley Ford, MD, United States Lat: 39.615
Local Time: 1:36 AM EDT ( 5:36 GMT) Lon: -78.761
Time Zone: US/Eastern Elev: 774 ft

Show me the last for .
Show Decoded

2018-07-17 01:16 METAR KCBE 170516Z AUTO 00000KT 10SM CLR 23/21 A2997 RMK AO1 =
2018-07-17 00:56 METAR KCBE 170456Z AUTO 15003KT 10SM SCT060 23/21 A2998 RMK AO1 =
2018-07-17 00:36 METAR KCBE 170436Z AUTO 00000KT 10SM SCT055 23/21 A2998 RMK AO1 =
2018-07-17 00:16 METAR KCBE 170416Z AUTO 19003KT 10SM CLR 23/22 A2998 RMK AO1 =
2018-07-16 23:56 METAR KCBE 170356Z AUTO 17003KT 10SM CLR 23/22 A2998 RMK AO1 =
2018-07-16 23:36 METAR KCBE 170336Z AUTO 20004KT 10SM CLR 23/21 A2997 RMK AO1 =
2018-07-16 23:16 METAR KCBE 170316Z AUTO 00000KT 10SM CLR 24/21 A2997 RMK AO1 =
2018-07-16 22:56 METAR KCBE 170256Z AUTO 00000KT 10SM CLR 24/21 A2997 RMK AO1 =
2018-07-16 22:36 METAR KCBE 170236Z AUTO 00000KT 10SM CLR 24/21 A2996 RMK AO1 =
2018-07-16 22:16 METAR KCBE 170216Z AUTO 18004KT 10SM CLR 25/21 A2997 RMK AO1 =
2018-07-16 21:56 METAR KCBE 170156Z AUTO 00000KT 10SM CLR 25/21 A2997 RMK AO1 =
2018-07-16 21:36 METAR KCBE 170136Z AUTO 16004KT 10SM CLR 26/21 A2996 RMK AO1 =
2018-07-16 21:16 METAR KCBE 170116Z AUTO 15006KT 10SM CLR 26/21 A2996 RMK AO1 =
2018-07-16 20:56 METAR KCBE 170056Z AUTO 16005KT 10SM CLR 26/20 A2996 RMK AO1 =
2018-07-16 20:36 METAR KCBE 170036Z AUTO 16005KT 10SM CLR 26/21 A2996 RMK AO1 =
2018-07-16 20:16 METAR KCBE 170016Z AUTO 17004KT 10SM CLR 27/20 A2995 RMK AO1 =
2018-07-16 19:56 METAR KCBE 162356Z AUTO 16006KT 10SM CLR 28/20 A2995 RMK AO1 =
2018-07-16 19:36 METAR KCBE 162336Z AUTO 17005KT 10SM CLR 28/20 A2996 RMK AO1 =
2018-07-16 19:16 METAR KCBE 162316Z AUTO 17006KT 10SM CLR 28/20 A2996 RMK AO1 =
2018-07-16 18:56 METAR KCBE 162256Z AUTO 17008KT 10SM CLR 30/20 A2995 RMK AO1 =
2018-07-16 18:36 METAR KCBE 162236Z AUTO 13011KT 10SM CLR 31/20 A2995 RMK AO1 =
2018-07-16 18:16 METAR KCBE 162216Z AUTO 18011KT 10SM CLR 31/19 A2995 RMK AO1 =
2018-07-16 17:56 METAR KCBE 162156Z AUTO 19013G20KT 10SM SCT055 31/20 A2995 RMK AO1 =
2018-07-16 17:36 METAR KCBE 162136Z AUTO 16005KT 10SM SCT055 32/20 A2995 RMK AO1 =
2018-07-16 17:16 METAR KCBE 162116Z AUTO 15005KT 10SM CLR 33/20 A2995 RMK AO1 =
2018-07-16 16:56 METAR KCBE 162056Z AUTO 12009KT 10SM CLR 33/20 A2995 RMK AO1 =
2018-07-16 16:36 METAR KCBE 162036Z AUTO 12007KT 10SM CLR 33/20 A2995 RMK AO1 =
2018-07-16 16:16 METAR KCBE 162016Z AUTO 17008KT 10SM CLR 33/20 A2996 RMK AO1 =
2018-07-16 15:56 METAR KCBE 161956Z AUTO 13008KT 10SM CLR 33/20 A2996 RMK AO1 =
2018-07-16 15:36 METAR KCBE 161936Z AUTO 17010KT 10SM CLR 33/20 A2998 RMK AO1 =
2018-07-16 15:16 METAR KCBE 161916Z AUTO 16007KT 10SM CLR 33/20 A2999 RMK AO1 =
2018-07-16 14:56 METAR KCBE 161856Z AUTO 15005KT 10SM CLR 33/19 A2999 RMK AO1 =
2018-07-16 14:36 METAR KCBE 161836Z AUTO 16007KT 10SM SCT044 32/21 A3000 RMK AO1 =
2018-07-16 14:16 METAR KCBE 161816Z AUTO 14005KT 10SM CLR 32/21 A3001 RMK AO1 =
2018-07-16 13:56 METAR KCBE 161756Z AUTO 10007KT 10SM CLR 32/21 A3002 RMK AO1 =
2018-07-16 13:36 METAR KCBE 161736Z AUTO 15005KT 10SM CLR 32/21 A3002 RMK AO1 =
2018-07-16 13:16 METAR KCBE 161716Z AUTO 13006KT 10SM CLR 31/20 A3003 RMK AO1 =
2018-07-16 12:56 METAR KCBE 161656Z AUTO 13006KT 10SM CLR 31/20 A3004 RMK AO1 =
2018-07-16 12:36 METAR KCBE 161636Z AUTO 12005KT 10SM CLR 31/21 A3005 RMK AO1 =
2018-07-16 12:16 METAR KCBE 161616Z AUTO 16005KT 10SM CLR 30/21 A3005 RMK AO1 =
2018-07-16 11:56 METAR KCBE 161556Z AUTO 16004KT 10SM CLR 29/21 A3006 RMK AO1 =
2018-07-16 11:36 METAR KCBE 161536Z AUTO 00000KT 10SM CLR 28/21 A3006 RMK AO1 =
2018-07-16 11:16 METAR KCBE 161516Z AUTO 15003KT 10SM CLR 27/21 A3007 RMK AO1 =
2018-07-16 10:56 METAR KCBE 161456Z AUTO 16005KT 10SM CLR 26/21 A3007 RMK AO1 =
2018-07-16 10:36 METAR KCBE 161436Z AUTO 15004KT 5SM CLR 25/21 A3007 RMK AO1 =
2018-07-16 10:16 METAR KCBE 161416Z AUTO 14003KT 5SM CLR 25/21 A3007 RMK AO1 =
2018-07-16 09:56 METAR KCBE 161356Z AUTO 15004KT 4SM SCT007 24/21 A3008 RMK AO1 =
2018-07-16 09:36 METAR KCBE 161336Z AUTO 16003KT 5SM SCT007 23/21 A3008 RMK AO1 =
2018-07-16 09:16 METAR KCBE 161316Z AUTO 20003KT 5SM OVC007 23/21 A3008 RMK AO1 =
2018-07-16 08:56 METAR KCBE 161256Z AUTO 00000KT 5SM OVC005 22/21 A3009 RMK AO1 =
2018-07-16 08:36 METAR KCBE 161236Z AUTO 00000KT 4SM OVC005 21/21 A3009 RMK AO1 =
2018-07-16 08:16 METAR KCBE 161216Z AUTO 00000KT 3SM OVC003 21/21 A3009 RMK AO1 =
2018-07-16 07:56 METAR KCBE 161156Z AUTO 00000KT 2SM OVC003 21/21 A3009 RMK AO1 =
2018-07-16 07:36 METAR KCBE 161136Z AUTO 00000KT 1 3/4SM OVC003 21/21 A3009 RMK AO1 =
2018-07-16 07:16 METAR KCBE 161116Z AUTO 00000KT 1 1/2SM OVC003 21/21 A3008 RMK AO1 =
2018-07-16 06:56 METAR KCBE 161056Z AUTO 00000KT 1 3/4SM OVC003 20/20 A3008 RMK AO1 =
2018-07-16 06:36 METAR KCBE 161036Z AUTO 00000KT 1 1/2SM OVC001 20/20 A3009 RMK AO1 =
2018-07-16 06:16 METAR KCBE 161016Z AUTO 00000KT 1 3/4SM OVC001 20/20 A3008 RMK AO1 =
2018-07-16 05:56 METAR KCBE 160956Z AUTO 00000KT M1/4SM OVC001 20/20 A3008 RMK AO1 =
2018-07-16 05:36 METAR KCBE 160936Z AUTO 00000KT 1/4SM OVC001 20/20 A3007 RMK AO1 =
2018-07-16 05:16 METAR KCBE 160916Z AUTO 00000KT 1/4SM OVC001 20/20 A3007 RMK AO1 =
2018-07-16 04:56 METAR KCBE 160856Z AUTO 00000KT M1/4SM OVC001 20/20 A3007 RMK AO1 =
2018-07-16 04:36 METAR KCBE 160836Z AUTO 00000KT 1/4SM OVC001 20/20 A3007 RMK AO1 =
2018-07-16 04:16 METAR KCBE 160816Z AUTO 00000KT 1/4SM OVC001 20/20 A3007 RMK AO1 =
2018-07-16 03:56 METAR KCBE 160756Z AUTO 15003KT 3/4SM OVC001 20/20 A3007 RMK AO1 =
2018-07-16 03:36 METAR KCBE 160736Z AUTO 00000KT 1 1/2SM OVC001 20/20 A3007 RMK AO1 =
2018-07-16 03:16 METAR KCBE 160716Z AUTO 00000KT 1/4SM OVC001 21/21 A3007 RMK AO1 =
2018-07-16 02:56 METAR KCBE 160656Z AUTO 00000KT 1 1/2SM OVC003 21/21 A3007 RMK AO1 =
2018-07-16 02:36 METAR KCBE 160636Z AUTO 00000KT 2SM OVC003 20/20 A3007 RMK AO1 =
2018-07-16 02:16 METAR KCBE 160616Z AUTO 00000KT M1/4SM OVC003 20/20 A3007 RMK AO1 =
2018-07-16 01:56 METAR KCBE 160556Z AUTO 00000KT 2SM OVC005 20/20 A3007 RMK AO1 =

Support USWX by starting your Amazon purchase here.